sensor_id;sensor_type;location;lat;lon;timestamp;temperature;humidity
34542;DHT22;20784;51.332;12.410;2022-09-28T00:01:45;9.50;99.90
34542;DHT22;20784;51.332;12.410;2022-09-28T00:04:11;9.60;99.90
34542;DHT22;20784;51.332;12.410;2022-09-28T00:06:40;9.50;99.90
34542;DHT22;20784;51.332;12.410;2022-09-28T00:09:09;9.50;99.90
34542;DHT22;20784;51.332;12.410;2022-09-28T00:11:38;9.50;99.90
34542;DHT22;20784;51.332;12.410;2022-09-28T00:14:05;9.60;99.90
34542;DHT22;20784;51.332;12.410;2022-09-28T00:16:38;9.50;99.90
34542;DHT22;20784;51.332;12.410;2022-09-28T00:19:04;9.60;99.90
34542;DHT22;20784;51.332;12.410;2022-09-28T00:21:33;9.50;99.90
34542;DHT22;20784;51.332;12.410;2022-09-28T00:24:04;9.50;99.90
34542;DHT22;20784;51.332;12.410;2022-09-28T00:26:50;9.50;99.90
34542;DHT22;20784;51.332;12.410;2022-09-28T00:29:29;9.50;99.90
34542;DHT22;20784;51.332;12.410;2022-09-28T00:32:04;9.50;99.90
34542;DHT22;20784;51.332;12.410;2022-09-28T00:34:55;9.40;99.90
34542;DHT22;20784;51.332;12.410;2022-09-28T00:37:20;9.30;99.90
34542;DHT22;20784;51.332;12.410;2022-09-28T00:39:47;9.40;99.90
34542;DHT22;20784;51.332;12.410;2022-09-28T00:42:26;9.30;99.90
34542;DHT22;20784;51.332;12.410;2022-09-28T00:44:56;9.30;99.90
34542;DHT22;20784;51.332;12.410;2022-09-28T00:47:26;9.30;99.90
34542;DHT22;20784;51.332;12.410;2022-09-28T00:50:06;9.20;99.90
34542;DHT22;20784;51.332;12.410;2022-09-28T00:55:37;9.20;99.90
34542;DHT22;20784;51.332;12.410;2022-09-28T00:58:06;9.20;99.90
34542;DHT22;20784;51.332;12.410;2022-09-28T01:00:33;9.20;99.90
34542;DHT22;20784;51.332;12.410;2022-09-28T01:02:59;9.20;99.90
34542;DHT22;20784;51.332;12.410;2022-09-28T01:05:25;9.20;99.90
34542;DHT22;20784;51.332;12.410;2022-09-28T01:07:51;9.20;99.90
34542;DHT22;20784;51.332;12.410;2022-09-28T01:10:21;9.20;99.90
34542;DHT22;20784;51.332;12.410;2022-09-28T01:12:47;9.20;99.90
34542;DHT22;20784;51.332;12.410;2022-09-28T01:15:13;9.20;99.90
34542;DHT22;20784;51.332;12.410;2022-09-28T01:20:31;9.20;99.90
34542;DHT22;20784;51.332;12.410;2022-09-28T01:23:16;9.20;99.90
34542;DHT22;20784;51.332;12.410;2022-09-28T01:26:16;9.10;99.90
34542;DHT22;20784;51.332;12.410;2022-09-28T01:28:46;9.10;99.90
34542;DHT22;20784;51.332;12.410;2022-09-28T01:31:15;9.10;99.90
34542;DHT22;20784;51.332;12.410;2022-09-28T01:34:00;9.10;99.90
34542;DHT22;20784;51.332;12.410;2022-09-28T01:36:32;9.00;99.90
34542;DHT22;20784;51.332;12.410;2022-09-28T01:39:09;8.90;99.90
34542;DHT22;20784;51.332;12.410;2022-09-28T01:41:41;9.00;99.90
34542;DHT22;20784;51.332;12.410;2022-09-28T01:44:16;8.90;99.90
34542;DHT22;20784;51.332;12.410;2022-09-28T01:46:46;8.90;99.90
34542;DHT22;20784;51.332;12.410;2022-09-28T01:49:38;8.90;99.90
34542;DHT22;20784;51.332;12.410;2022-09-28T01:52:14;8.80;99.90
34542;DHT22;20784;51.332;12.410;2022-09-28T01:54:45;8.80;99.90
34542;DHT22;20784;51.332;12.410;2022-09-28T01:57:14;8.70;99.90
34542;DHT22;20784;51.332;12.410;2022-09-28T01:59:51;8.70;99.90
34542;DHT22;20784;51.332;12.410;2022-09-28T02:02:23;8.80;99.90
34542;DHT22;20784;51.332;12.410;2022-09-28T02:05:01;8.60;99.90
34542;DHT22;20784;51.332;12.410;2022-09-28T02:07:39;8.60;99.90
34542;DHT22;20784;51.332;12.410;2022-09-28T02:10:14;8.60;99.90
34542;DHT22;20784;51.332;12.410;2022-09-28T02:13:14;8.60;99.90
34542;DHT22;20784;51.332;12.410;2022-09-28T02:16:10;8.70;99.90
34542;DHT22;20784;51.332;12.410;2022-09-28T02:18:47;8.60;99.90
34542;DHT22;20784;51.332;12.410;2022-09-28T02:26:49;8.60;99.90
34542;DHT22;20784;51.332;12.410;2022-09-28T02:29:27;8.60;99.90
34542;DHT22;20784;51.332;12.410;2022-09-28T02:31:59;8.60;99.90
34542;DHT22;20784;51.332;12.410;2022-09-28T02:34:25;8.50;99.90
34542;DHT22;20784;51.332;12.410;2022-09-28T02:36:53;8.60;99.90
34542;DHT22;20784;51.332;12.410;2022-09-28T02:39:19;8.60;99.90
34542;DHT22;20784;51.332;12.410;2022-09-28T02:41:54;8.50;99.90
34542;DHT22;20784;51.332;12.410;2022-09-28T02:47:14;8.60;99.90
34542;DHT22;20784;51.332;12.410;2022-09-28T02:50:06;8.50;99.90
34542;DHT22;20784;51.332;12.410;2022-09-28T02:52:59;8.50;99.90
34542;DHT22;20784;51.332;12.410;2022-09-28T03:01:25;8.50;99.90
34542;DHT22;20784;51.332;12.410;2022-09-28T03:03:59;8.40;99.90
34542;DHT22;20784;51.332;12.410;2022-09-28T03:06:40;8.40;99.90
34542;DHT22;20784;51.332;12.410;2022-09-28T03:09:27;8.40;99.90
34542;DHT22;20784;51.332;12.410;2022-09-28T03:12:05;8.30;99.90
34542;DHT22;20784;51.332;12.410;2022-09-28T03:14:35;8.30;99.90
34542;DHT22;20784;51.332;12.410;2022-09-28T03:17:04;8.30;99.90
34542;DHT22;20784;51.332;12.410;2022-09-28T03:19:39;8.30;99.90
34542;DHT22;20784;51.332;12.410;2022-09-28T03:22:07;8.40;99.90
34542;DHT22;20784;51.332;12.410;2022-09-28T03:24:33;8.40;99.90
34542;DHT22;20784;51.332;12.410;2022-09-28T03:26:58;8.40;99.90
34542;DHT22;20784;51.332;12.410;2022-09-28T03:29:24;8.40;99.90
34542;DHT22;20784;51.332;12.410;2022-09-28T03:31:53;8.50;99.90
34542;DHT22;20784;51.332;12.410;2022-09-28T03:34:26;8.50;99.90
34542;DHT22;20784;51.332;12.410;2022-09-28T03:36:57;8.40;99.90
34542;DHT22;20784;51.332;12.410;2022-09-28T03:39:29;8.50;99.90
34542;DHT22;20784;51.332;12.410;2022-09-28T03:41:55;8.50;99.90
34542;DHT22;20784;51.332;12.410;2022-09-28T03:44:21;8.50;99.90
34542;DHT22;20784;51.332;12.410;2022-09-28T03:46:48;8.60;99.90
34542;DHT22;20784;51.332;12.410;2022-09-28T03:49:17;8.70;99.90
34542;DHT22;20784;51.332;12.410;2022-09-28T03:51:43;8.70;99.90
34542;DHT22;20784;51.332;12.410;2022-09-28T03:54:11;8.70;99.90
34542;DHT22;20784;51.332;12.410;2022-09-28T03:56:39;8.60;99.90
34542;DHT22;20784;51.332;12.410;2022-09-28T03:59:07;8.60;99.90
34542;DHT22;20784;51.332;12.410;2022-09-28T04:01:35;8.60;99.90
34542;DHT22;20784;51.332;12.410;2022-09-28T04:04:01;8.60;99.90
34542;DHT22;20784;51.332;12.410;2022-09-28T04:06:32;8.80;99.90
34542;DHT22;20784;51.332;12.410;2022-09-28T04:09:00;8.80;99.90
34542;DHT22;20784;51.332;12.410;2022-09-28T04:11:26;8.80;99.90
34542;DHT22;20784;51.332;12.410;2022-09-28T04:13:51;8.80;99.90
34542;DHT22;20784;51.332;12.410;2022-09-28T04:16:17;8.70;99.90
34542;DHT22;20784;51.332;12.410;2022-09-28T04:18:48;8.80;99.90
34542;DHT22;20784;51.332;12.410;2022-09-28T04:21:15;8.80;99.90
34542;DHT22;20784;51.332;12.410;2022-09-28T04:23:45;8.90;99.90
34542;DHT22;20784;51.332;12.410;2022-09-28T04:26:26;8.80;99.90
34542;DHT22;20784;51.332;12.410;2022-09-28T04:28:52;8.80;99.90
34542;DHT22;20784;51.332;12.410;2022-09-28T04:31:47;8.80;99.90
34542;DHT22;20784;51.332;12.410;2022-09-28T04:34:18;8.80;99.90
34542;DHT22;20784;51.332;12.410;2022-09-28T04:36:47;8.80;99.90
34542;DHT22;20784;51.332;12.410;2022-09-28T04:39:15;8.80;99.90
34542;DHT22;20784;51.332;12.410;2022-09-28T04:41:41;8.80;99.90
34542;DHT22;20784;51.332;12.410;2022-09-28T04:44:17;8.80;99.90
34542;DHT22;20784;51.332;12.410;2022-09-28T04:46:45;8.80;99.90
34542;DHT22;20784;51.332;12.410;2022-09-28T04:49:11;8.80;99.90
34542;DHT22;20784;51.332;12.410;2022-09-28T04:51:50;8.80;99.90
34542;DHT22;20784;51.332;12.410;2022-09-28T04:54:24;8.90;99.90
34542;DHT22;20784;51.332;12.410;2022-09-28T04:56:58;8.80;99.90
34542;DHT22;20784;51.332;12.410;2022-09-28T04:59:27;8.80;99.90
34542;DHT22;20784;51.332;12.410;2022-09-28T05:01:53;8.90;99.90
34542;DHT22;20784;51.332;12.410;2022-09-28T05:04:18;8.90;99.90
34542;DHT22;20784;51.332;12.410;2022-09-28T05:06:44;8.90;99.90
34542;DHT22;20784;51.332;12.410;2022-09-28T05:09:09;8.90;99.90
34542;DHT22;20784;51.332;12.410;2022-09-28T05:11:38;8.90;99.90
34542;DHT22;20784;51.332;12.410;2022-09-28T05:14:03;8.90;99.90
34542;DHT22;20784;51.332;12.410;2022-09-28T05:16:39;9.00;99.90
34542;DHT22;20784;51.332;12.410;2022-09-28T05:19:08;9.10;99.90
34542;DHT22;20784;51.332;12.410;2022-09-28T05:21:37;9.10;99.90
34542;DHT22;20784;51.332;12.410;2022-09-28T05:24:09;9.10;99.90
34542;DHT22;20784;51.332;12.410;2022-09-28T05:26:38;9.10;99.90
34542;DHT22;20784;51.332;12.410;2022-09-28T05:29:06;9.10;99.90
34542;DHT22;20784;51.332;12.410;2022-09-28T05:31:37;9.10;99.90
34542;DHT22;20784;51.332;12.410;2022-09-28T05:34:06;9.10;99.90
34542;DHT22;20784;51.332;12.410;2022-09-28T05:36:32;9.10;99.90
34542;DHT22;20784;51.332;12.410;2022-09-28T05:38:58;9.00;99.90
34542;DHT22;20784;51.332;12.410;2022-09-28T05:41:23;9.10;99.90
34542;DHT22;20784;51.332;12.410;2022-09-28T05:43:49;9.20;99.90
34542;DHT22;20784;51.332;12.410;2022-09-28T05:46:19;9.20;99.90
34542;DHT22;20784;51.332;12.410;2022-09-28T05:48:54;9.30;99.90
34542;DHT22;20784;51.332;12.410;2022-09-28T05:51:28;9.30;99.90
34542;DHT22;20784;51.332;12.410;2022-09-28T05:54:02;9.20;99.90
34542;DHT22;20784;51.332;12.410;2022-09-28T05:56:35;9.20;99.90
34542;DHT22;20784;51.332;12.410;2022-09-28T05:59:04;9.30;99.90
34542;DHT22;20784;51.332;12.410;2022-09-28T06:01:32;9.30;99.90
34542;DHT22;20784;51.332;12.410;2022-09-28T06:04:11;9.40;99.90
34542;DHT22;20784;51.332;12.410;2022-09-28T06:06:36;9.50;99.90
34542;DHT22;20784;51.332;12.410;2022-09-28T06:09:06;9.40;99.90
34542;DHT22;20784;51.332;12.410;2022-09-28T06:11:32;9.30;99.90
34542;DHT22;20784;51.332;12.410;2022-09-28T06:13:57;9.30;99.90
34542;DHT22;20784;51.332;12.410;2022-09-28T06:16:23;9.30;99.90
34542;DHT22;20784;51.332;12.410;2022-09-28T06:18:49;9.30;99.90
34542;DHT22;20784;51.332;12.410;2022-09-28T06:21:15;9.30;99.90
34542;DHT22;20784;51.332;12.410;2022-09-28T06:23:41;9.20;99.90
34542;DHT22;20784;51.332;12.410;2022-09-28T06:26:06;9.20;99.90
34542;DHT22;20784;51.332;12.410;2022-09-28T06:28:32;9.20;99.90
34542;DHT22;20784;51.332;12.410;2022-09-28T06:31:07;9.20;99.90
34542;DHT22;20784;51.332;12.410;2022-09-28T06:33:33;9.20;99.90
34542;DHT22;20784;51.332;12.410;2022-09-28T06:36:11;9.30;99.90
34542;DHT22;20784;51.332;12.410;2022-09-28T06:38:46;9.30;99.90
34542;DHT22;20784;51.332;12.410;2022-09-28T06:41:32;9.30;99.90
34542;DHT22;20784;51.332;12.410;2022-09-28T06:44:14;9.30;99.90
34542;DHT22;20784;51.332;12.410;2022-09-28T06:46:43;9.30;99.90
34542;DHT22;20784;51.332;12.410;2022-09-28T06:49:19;9.40;99.90
34542;DHT22;20784;51.332;12.410;2022-09-28T06:51:58;9.30;99.90
34542;DHT22;20784;51.332;12.410;2022-09-28T06:54:23;9.40;99.90
34542;DHT22;20784;51.332;12.410;2022-09-28T06:56:51;9.30;99.90
34542;DHT22;20784;51.332;12.410;2022-09-28T06:59:19;9.30;99.90
34542;DHT22;20784;51.332;12.410;2022-09-28T07:02:10;9.40;99.90
34542;DHT22;20784;51.332;12.410;2022-09-28T07:04:47;9.50;99.90
34542;DHT22;20784;51.332;12.410;2022-09-28T07:07:15;9.50;99.90
34542;DHT22;20784;51.332;12.410;2022-09-28T07:09:43;9.50;99.90
34542;DHT22;20784;51.332;12.410;2022-09-28T07:12:09;9.50;99.90
34542;DHT22;20784;51.332;12.410;2022-09-28T07:14:37;9.60;99.90
34542;DHT22;20784;51.332;12.410;2022-09-28T07:17:04;9.50;99.90
34542;DHT22;20784;51.332;12.410;2022-09-28T07:19:32;9.60;99.90
34542;DHT22;20784;51.332;12.410;2022-09-28T07:22:00;9.60;99.90
34542;DHT22;20784;51.332;12.410;2022-09-28T07:24:35;9.60;99.90
34542;DHT22;20784;51.332;12.410;2022-09-28T07:27:03;9.60;99.90
34542;DHT22;20784;51.332;12.410;2022-09-28T07:29:29;9.70;99.90
34542;DHT22;20784;51.332;12.410;2022-09-28T07:31:55;9.70;99.90
34542;DHT22;20784;51.332;12.410;2022-09-28T07:34:20;9.70;99.90
34542;DHT22;20784;51.332;12.410;2022-09-28T07:36:51;9.80;99.90
34542;DHT22;20784;51.332;12.410;2022-09-28T07:39:23;9.70;99.90
34542;DHT22;20784;51.332;12.410;2022-09-28T07:41:54;9.70;99.90
34542;DHT22;20784;51.332;12.410;2022-09-28T07:44:19;9.80;99.90
34542;DHT22;20784;51.332;12.410;2022-09-28T07:46:45;9.80;99.90
34542;DHT22;20784;51.332;12.410;2022-09-28T07:49:10;9.70;99.90
34542;DHT22;20784;51.332;12.410;2022-09-28T07:51:37;9.70;99.90
34542;DHT22;20784;51.332;12.410;2022-09-28T07:54:05;9.70;99.90
34542;DHT22;20784;51.332;12.410;2022-09-28T07:56:31;9.70;99.90
34542;DHT22;20784;51.332;12.410;2022-09-28T07:58:58;9.70;99.90
34542;DHT22;20784;51.332;12.410;2022-09-28T08:01:23;9.60;99.90
34542;DHT22;20784;51.332;12.410;2022-09-28T08:14:30;9.60;99.90
34542;DHT22;20784;51.332;12.410;2022-09-28T08:17:00;9.40;99.90
34542;DHT22;20784;51.332;12.410;2022-09-28T08:19:26;9.40;99.90
34542;DHT22;20784;51.332;12.410;2022-09-28T08:22:12;9.40;99.90
34542;DHT22;20784;51.332;12.410;2022-09-28T08:24:44;9.40;99.90
34542;DHT22;20784;51.332;12.410;2022-09-28T08:27:11;9.40;99.90
34542;DHT22;20784;51.332;12.410;2022-09-28T08:29:39;9.30;99.90
34542;DHT22;20784;51.332;12.410;2022-09-28T08:32:16;9.20;99.90
34542;DHT22;20784;51.332;12.410;2022-09-28T08:34:43;9.20;99.90
34542;DHT22;20784;51.332;12.410;2022-09-28T08:37:17;9.20;99.90
34542;DHT22;20784;51.332;12.410;2022-09-28T08:39:43;9.20;99.90
34542;DHT22;20784;51.332;12.410;2022-09-28T08:42:26;9.20;99.90
34542;DHT22;20784;51.332;12.410;2022-09-28T08:45:03;9.30;99.90
34542;DHT22;20784;51.332;12.410;2022-09-28T08:50:44;9.40;99.90
34542;DHT22;20784;51.332;12.410;2022-09-28T08:56:08;9.50;99.90
34542;DHT22;20784;51.332;12.410;2022-09-28T08:58:40;9.50;99.90
34542;DHT22;20784;51.332;12.410;2022-09-28T09:01:11;9.40;99.90
34542;DHT22;20784;51.332;12.410;2022-09-28T09:03:47;9.40;99.90
34542;DHT22;20784;51.332;12.410;2022-09-28T09:06:33;9.40;99.90
34542;DHT22;20784;51.332;12.410;2022-09-28T09:17:32;9.50;99.90
34542;DHT22;20784;51.332;12.410;2022-09-28T09:20:28;9.50;99.90
34542;DHT22;20784;51.332;12.410;2022-09-28T09:26:19;9.50;99.90
34542;DHT22;20784;51.332;12.410;2022-09-28T09:37:39;9.80;99.90
34542;DHT22;20784;51.332;12.410;2022-09-28T09:40:44;9.90;99.90
34542;DHT22;20784;51.332;12.410;2022-09-28T09:46:16;10.10;99.90
34542;DHT22;20784;51.332;12.410;2022-09-28T09:54:22;10.20;99.90
34542;DHT22;20784;51.332;12.410;2022-09-28T09:57:20;10.40;99.90
34542;DHT22;20784;51.332;12.410;2022-09-28T09:59:50;10.40;99.90
34542;DHT22;20784;51.332;12.410;2022-09-28T10:02:28;10.50;99.90
34542;DHT22;20784;51.332;12.410;2022-09-28T10:07:53;10.50;99.90
34542;DHT22;20784;51.332;12.410;2022-09-28T10:10:36;10.50;99.90
34542;DHT22;20784;51.332;12.410;2022-09-28T10:13:02;10.50;99.90
34542;DHT22;20784;51.332;12.410;2022-09-28T10:15:30;10.60;99.90
34542;DHT22;20784;51.332;12.410;2022-09-28T10:18:19;10.70;99.90
34542;DHT22;20784;51.332;12.410;2022-09-28T10:20:44;10.80;99.90
34542;DHT22;20784;51.332;12.410;2022-09-28T10:23:21;10.80;99.90
34542;DHT22;20784;51.332;12.410;2022-09-28T10:25:51;10.80;99.90
34542;DHT22;20784;51.332;12.410;2022-09-28T10:28:25;10.70;99.90
34542;DHT22;20784;51.332;12.410;2022-09-28T10:30:54;10.70;99.90
34542;DHT22;20784;51.332;12.410;2022-09-28T10:33:31;10.70;99.90
34542;DHT22;20784;51.332;12.410;2022-09-28T10:35:59;10.60;99.90
34542;DHT22;20784;51.332;12.410;2022-09-28T10:38:25;10.60;99.90
34542;DHT22;20784;51.332;12.410;2022-09-28T10:40:57;10.60;99.90
34542;DHT22;20784;51.332;12.410;2022-09-28T10:43:29;10.60;99.90
34542;DHT22;20784;51.332;12.410;2022-09-28T10:48:28;10.40;99.90
34542;DHT22;20784;51.332;12.410;2022-09-28T10:51:02;10.40;99.90
34542;DHT22;20784;51.332;12.410;2022-09-28T10:53:28;10.40;99.90
34542;DHT22;20784;51.332;12.410;2022-09-28T10:56:05;10.40;99.90
34542;DHT22;20784;51.332;12.410;2022-09-28T10:58:37;10.40;99.90
34542;DHT22;20784;51.332;12.410;2022-09-28T11:01:10;10.40;99.90
34542;DHT22;20784;51.332;12.410;2022-09-28T11:03:54;10.40;99.90
34542;DHT22;20784;51.332;12.410;2022-09-28T11:06:32;10.40;99.90
34542;DHT22;20784;51.332;12.410;2022-09-28T11:09:02;10.50;99.90
34542;DHT22;20784;51.332;12.410;2022-09-28T11:11:28;10.40;99.90
34542;DHT22;20784;51.332;12.410;2022-09-28T11:13:59;10.40;99.90
34542;DHT22;20784;51.332;12.410;2022-09-28T11:16:33;10.40;99.90
34542;DHT22;20784;51.332;12.410;2022-09-28T11:19:27;10.30;99.90
34542;DHT22;20784;51.332;12.410;2022-09-28T11:21:56;10.20;99.90
34542;DHT22;20784;51.332;12.410;2022-09-28T11:24:23;10.30;99.90
34542;DHT22;20784;51.332;12.410;2022-09-28T11:26:54;10.30;99.90
34542;DHT22;20784;51.332;12.410;2022-09-28T11:29:40;10.40;99.90
34542;DHT22;20784;51.332;12.410;2022-09-28T11:32:07;10.60;99.90
34542;DHT22;20784;51.332;12.410;2022-09-28T11:34:42;10.70;99.90
34542;DHT22;20784;51.332;12.410;2022-09-28T11:40:12;10.80;99.90
34542;DHT22;20784;51.332;12.410;2022-09-28T11:45:47;10.90;99.90
34542;DHT22;20784;51.332;12.410;2022-09-28T11:48:14;11.00;99.90
34542;DHT22;20784;51.332;12.410;2022-09-28T11:50:57;10.90;99.90
34542;DHT22;20784;51.332;12.410;2022-09-28T11:53:41;11.10;99.90
34542;DHT22;20784;51.332;12.410;2022-09-28T11:56:40;11.10;99.90
34542;DHT22;20784;51.332;12.410;2022-09-28T11:59:10;11.20;99.90
34542;DHT22;20784;51.332;12.410;2022-09-28T12:01:56;11.30;99.90
34542;DHT22;20784;51.332;12.410;2022-09-28T12:04:37;11.20;99.90
34542;DHT22;20784;51.332;12.410;2022-09-28T12:07:29;11.30;99.90
34542;DHT22;20784;51.332;12.410;2022-09-28T12:10:09;11.30;99.90
34542;DHT22;20784;51.332;12.410;2022-09-28T12:12:56;11.50;99.90
34542;DHT22;20784;51.332;12.410;2022-09-28T12:18:01;11.90;99.90
34542;DHT22;20784;51.332;12.410;2022-09-28T12:20:39;12.00;99.90
34542;DHT22;20784;51.332;12.410;2022-09-28T12:23:32;12.20;99.90
34542;DHT22;20784;51.332;12.410;2022-09-28T12:25:59;12.30;99.90
34542;DHT22;20784;51.332;12.410;2022-09-28T12:28:36;12.40;99.90
34542;DHT22;20784;51.332;12.410;2022-09-28T12:33:54;12.40;99.90
34542;DHT22;20784;51.332;12.410;2022-09-28T12:36:59;12.30;99.90
34542;DHT22;20784;51.332;12.410;2022-09-28T12:39:45;12.30;99.90
34542;DHT22;20784;51.332;12.410;2022-09-28T12:43:00;12.20;99.90
34542;DHT22;20784;51.332;12.410;2022-09-28T12:51:37;12.30;99.90
34542;DHT22;20784;51.332;12.410;2022-09-28T12:56:57;11.90;99.90
34542;DHT22;20784;51.332;12.410;2022-09-28T12:59:32;11.70;99.90
34542;DHT22;20784;51.332;12.410;2022-09-28T13:10:18;11.20;99.90
34542;DHT22;20784;51.332;12.410;2022-09-28T13:24:23;11.80;99.90
34542;DHT22;20784;51.332;12.410;2022-09-28T13:26:51;11.90;99.90
34542;DHT22;20784;51.332;12.410;2022-09-28T13:29:19;12.00;99.90
34542;DHT22;20784;51.332;12.410;2022-09-28T13:31:49;12.00;99.90
34542;DHT22;20784;51.332;12.410;2022-09-28T13:34:22;12.00;99.90
34542;DHT22;20784;51.332;12.410;2022-09-28T13:37:09;12.00;99.90
34542;DHT22;20784;51.332;12.410;2022-09-28T13:45:13;12.10;99.90
34542;DHT22;20784;51.332;12.410;2022-09-28T13:50:33;12.20;99.90
34542;DHT22;20784;51.332;12.410;2022-09-28T13:53:32;12.30;99.90
34542;DHT22;20784;51.332;12.410;2022-09-28T13:58:44;12.70;99.90
34542;DHT22;20784;51.332;12.410;2022-09-28T14:01:20;12.70;99.90
34542;DHT22;20784;51.332;12.410;2022-09-28T14:03:54;12.60;99.90
34542;DHT22;20784;51.332;12.410;2022-09-28T14:06:27;12.50;99.90
34542;DHT22;20784;51.332;12.410;2022-09-28T14:09:24;12.70;99.90
34542;DHT22;20784;51.332;12.410;2022-09-28T14:11:59;12.80;99.90
34542;DHT22;20784;51.332;12.410;2022-09-28T14:14:27;13.00;99.90
34542;DHT22;20784;51.332;12.410;2022-09-28T14:20:14;13.00;99.90
34542;DHT22;20784;51.332;12.410;2022-09-28T14:25:58;13.20;99.90
34542;DHT22;20784;51.332;12.410;2022-09-28T14:31:29;13.10;99.90
34542;DHT22;20784;51.332;12.410;2022-09-28T14:34:00;13.00;99.90
34542;DHT22;20784;51.332;12.410;2022-09-28T14:36:36;13.00;99.90
34542;DHT22;20784;51.332;12.410;2022-09-28T14:39:44;12.80;99.90
34542;DHT22;20784;51.332;12.410;2022-09-28T14:42:28;12.90;99.90
34542;DHT22;20784;51.332;12.410;2022-09-28T14:47:35;12.70;99.90
34542;DHT22;20784;51.332;12.410;2022-09-28T14:52:49;12.70;99.90
34542;DHT22;20784;51.332;12.410;2022-09-28T14:55:19;12.80;99.90
34542;DHT22;20784;51.332;12.410;2022-09-28T14:57:54;12.90;99.90
34542;DHT22;20784;51.332;12.410;2022-09-28T15:00:23;12.80;99.90
34542;DHT22;20784;51.332;12.410;2022-09-28T15:02:58;12.70;99.90
34542;DHT22;20784;51.332;12.410;2022-09-28T15:05:34;12.70;99.90
34542;DHT22;20784;51.332;12.410;2022-09-28T15:08:18;12.60;99.90
34542;DHT22;20784;51.332;12.410;2022-09-28T15:10:48;12.60;99.90
34542;DHT22;20784;51.332;12.410;2022-09-28T15:13:21;12.60;99.90
34542;DHT22;20784;51.332;12.410;2022-09-28T15:16:03;12.50;99.90
34542;DHT22;20784;51.332;12.410;2022-09-28T15:21:11;12.50;99.90
34542;DHT22;20784;51.332;12.410;2022-09-28T15:23:39;12.60;99.90
34542;DHT22;20784;51.332;12.410;2022-09-28T15:26:27;12.40;99.90
34542;DHT22;20784;51.332;12.410;2022-09-28T15:28:55;12.40;99.90
34542;DHT22;20784;51.332;12.410;2022-09-28T15:31:24;12.30;99.90
34542;DHT22;20784;51.332;12.410;2022-09-28T15:33:53;12.30;99.90
34542;DHT22;20784;51.332;12.410;2022-09-28T15:36:40;12.20;99.90
34542;DHT22;20784;51.332;12.410;2022-09-28T15:39:29;12.10;99.90
34542;DHT22;20784;51.332;12.410;2022-09-28T15:41:57;12.10;99.90
34542;DHT22;20784;51.332;12.410;2022-09-28T15:44:30;12.00;99.90
34542;DHT22;20784;51.332;12.410;2022-09-28T15:47:24;12.10;99.90
34542;DHT22;20784;51.332;12.410;2022-09-28T15:50:05;12.10;99.90
34542;DHT22;20784;51.332;12.410;2022-09-28T15:52:42;12.10;99.90
34542;DHT22;20784;51.332;12.410;2022-09-28T15:55:41;12.10;99.90
34542;DHT22;20784;51.332;12.410;2022-09-28T16:00:37;12.10;99.90
34542;DHT22;20784;51.332;12.410;2022-09-28T16:03:20;12.00;99.90
34542;DHT22;20784;51.332;12.410;2022-09-28T16:11:21;11.90;99.90
34542;DHT22;20784;51.332;12.410;2022-09-28T16:13:57;11.80;99.90
34542;DHT22;20784;51.332;12.410;2022-09-28T16:16:29;11.60;99.90
34542;DHT22;20784;51.332;12.410;2022-09-28T16:18:57;11.50;99.90
34542;DHT22;20784;51.332;12.410;2022-09-28T16:23:52;11.30;99.90
34542;DHT22;20784;51.332;12.410;2022-09-28T16:26:32;11.30;99.90
34542;DHT22;20784;51.332;12.410;2022-09-28T16:29:05;11.20;99.90
34542;DHT22;20784;51.332;12.410;2022-09-28T16:31:33;11.20;99.90
34542;DHT22;20784;51.332;12.410;2022-09-28T16:36:43;11.00;99.90
34542;DHT22;20784;51.332;12.410;2022-09-28T16:39:11;10.90;99.90
34542;DHT22;20784;51.332;12.410;2022-09-28T16:41:37;10.90;99.90
34542;DHT22;20784;51.332;12.410;2022-09-28T16:44:20;10.80;99.90
34542;DHT22;20784;51.332;12.410;2022-09-28T16:46:50;10.80;99.90
34542;DHT22;20784;51.332;12.410;2022-09-28T16:49:19;10.80;99.90
34542;DHT22;20784;51.332;12.410;2022-09-28T16:51:50;10.70;99.90
34542;DHT22;20784;51.332;12.410;2022-09-28T16:54:28;10.60;99.90
34542;DHT22;20784;51.332;12.410;2022-09-28T16:57:16;10.60;99.90
34542;DHT22;20784;51.332;12.410;2022-09-28T16:59:41;10.50;99.90
34542;DHT22;20784;51.332;12.410;2022-09-28T17:02:19;10.50;99.90
34542;DHT22;20784;51.332;12.410;2022-09-28T17:04:45;10.50;99.90
34542;DHT22;20784;51.332;12.410;2022-09-28T17:07:12;10.40;99.90
34542;DHT22;20784;51.332;12.410;2022-09-28T17:09:39;10.30;99.90
34542;DHT22;20784;51.332;12.410;2022-09-28T17:12:15;10.20;99.90
34542;DHT22;20784;51.332;12.410;2022-09-28T17:14:42;10.20;99.90
34542;DHT22;20784;51.332;12.410;2022-09-28T17:17:12;10.20;99.90
34542;DHT22;20784;51.332;12.410;2022-09-28T17:19:38;10.10;99.90
34542;DHT22;20784;51.332;12.410;2022-09-28T17:22:03;10.10;99.90
34542;DHT22;20784;51.332;12.410;2022-09-28T17:24:32;10.10;99.90
34542;DHT22;20784;51.332;12.410;2022-09-28T17:27:01;10.10;99.90
34542;DHT22;20784;51.332;12.410;2022-09-28T17:29:37;10.00;99.90
34542;DHT22;20784;51.332;12.410;2022-09-28T17:32:16;10.10;99.90
34542;DHT22;20784;51.332;12.410;2022-09-28T17:34:46;10.10;99.90
34542;DHT22;20784;51.332;12.410;2022-09-28T17:37:23;10.00;99.90
34542;DHT22;20784;51.332;12.410;2022-09-28T17:39:54;10.00;99.90
34542;DHT22;20784;51.332;12.410;2022-09-28T17:42:28;10.00;99.90
34542;DHT22;20784;51.332;12.410;2022-09-28T17:44:53;10.10;99.90
34542;DHT22;20784;51.332;12.410;2022-09-28T17:47:24;10.10;99.90
34542;DHT22;20784;51.332;12.410;2022-09-28T17:49:52;10.10;99.90
34542;DHT22;20784;51.332;12.410;2022-09-28T17:52:18;10.00;99.90
34542;DHT22;20784;51.332;12.410;2022-09-28T17:54:44;10.10;99.90
34542;DHT22;20784;51.332;12.410;2022-09-28T17:57:12;10.00;99.90
34542;DHT22;20784;51.332;12.410;2022-09-28T17:59:40;10.10;99.90
34542;DHT22;20784;51.332;12.410;2022-09-28T18:02:12;10.10;99.90
34542;DHT22;20784;51.332;12.410;2022-09-28T18:04:37;10.00;99.90
34542;DHT22;20784;51.332;12.410;2022-09-28T18:07:09;9.90;99.90
34542;DHT22;20784;51.332;12.410;2022-09-28T18:09:51;9.90;99.90
34542;DHT22;20784;51.332;12.410;2022-09-28T18:12:31;9.80;99.90
34542;DHT22;20784;51.332;12.410;2022-09-28T18:15:06;9.80;99.90
34542;DHT22;20784;51.332;12.410;2022-09-28T18:17:37;9.80;99.90
34542;DHT22;20784;51.332;12.410;2022-09-28T18:20:06;9.80;99.90
34542;DHT22;20784;51.332;12.410;2022-09-28T18:22:37;9.80;99.90
34542;DHT22;20784;51.332;12.410;2022-09-28T18:25:04;9.80;99.90
34542;DHT22;20784;51.332;12.410;2022-09-28T18:27:33;9.80;99.90
34542;DHT22;20784;51.332;12.410;2022-09-28T18:29:59;9.80;99.90
34542;DHT22;20784;51.332;12.410;2022-09-28T18:32:25;9.80;99.90
34542;DHT22;20784;51.332;12.410;2022-09-28T18:34:54;9.80;99.90